Terminal Aerodrome Forecast
Issued by NWS Blacksburg, VA

Current Version | Previous Version | Text Only | Print | Product List | Glossary Off
Versions: 1 2 3 4 5 6 7 8 9 10 11 12 13 14 15 16 17 18

000
FTUS41 KRNK 281729
TAFBLF
TAF
KBLF 281729Z 2818/2918 27007KT P6SM BKN035
     FM290000 26009KT P6SM BKN060
     FM290200 25007KT P6SM SCT025
     FM291300 28007KT P6SM BKN035
     FM291500 28007KT P6SM SCT250=

USA.gov is the U.S. government's official web portal to all federal, state and local government web resources and services.